Hauptseite
METAR-TAF:

METAR-TAF

Flughäfen :

Marham, England

RAF Marham

Breite: 52-39N, Länge: 000-34E, Höhe: 23 m

Beobachtung

Neuester Wetterbericht von vor 1 Stunde und 3 Minuten, um 08:50 UTC
Wind 6 kt aus Süd
Temperatur 21°C
Luftfeuchtigkeit 53%
Luftdruck 1024 hPa
Sichtweite 10 km oder mehr
keine Wolken unter 1500 m und keine Kumulonimbus oder Gewitterwolken

METAR: EGYM 190850Z 17006KT CAVOK 21/11 Q1024 BLU NOSIG

Zeit: 10:53 (09:53 UTC)

Prognose

Neuester Wetterbericht von vor 2 Stunden und 35 Minuten, um 07:18 UTC
Gültige Prognose vom 19 um 09 UTC bis 19 um 18 UTC
Wind 7 kt aus Südost
Sichtweite 10 km oder mehr
keine Wolken unter 1500 m und keine Kumulonimbus oder Gewitterwolken

TAF: EGYM 190718Z 1909/1918 13007KT CAVOK

Wetterbeobachtungen und Prognosen von mehr als 4000 Flughäfen (METAR und TAF Bericht).

Die verfügbaren Stationen werden durch gelbe und rote Markierungen auf der Karte dargestellt.

Führen Sie die Maus auf sie, um den Namen der Station zu sehen.

Darauf klicken, um die Beobachtung von Wetterbeobachtungen und Prognosen zu sehen.

Um die Karte zu ändern : klicken Sie auf den grünen Tasten mit einem schwarzen Kreuz Zum Vergrößern, auf den grünen Button mit einem Gedankenstrich zu verkleinern, oder auf die grünen Pfeile für benachbarte Karten.


METAR-TAF: